This is the latest recevied weather packets stored in our database for station/object SP3ZBZ-13. If no packets are shown the sender has not sent any weather packets the latest 10 day(s).
| Time | Temp. | Humidity | Pressure | Rain* | Wind** | Luminosity | Snow |
|---|---|---|---|---|---|---|---|
| 1777418627 | 1.67° C | 67% | 1024.1 hPa | - | - | - | - |
| 1777417726 | 2.22° C | 65% | 1024 hPa | - | - | - | - |
| 1777416825 | 1.67° C | 66% | 1023.9 hPa | - | - | - | - |
| 1777415924 | 2.22° C | 65% | 1023.9 hPa | - | - | - | - |
| 1777415024 | 2.78° C | 63% | 1023.8 hPa | - | - | - | - |
| 1777414123 | 3.33° C | 60% | 1023.7 hPa | - | - | - | - |
| 1777413222 | 3.33° C | 59% | 1023.5 hPa | - | - | - | - |
| 1777412320 | 3.89° C | 58% | 1023.3 hPa | - | - | - | - |
| 1777411420 | 3.89° C | 58% | 1023.2 hPa | - | - | - | - |
| 1777410518 | 4.44° C | 56% | 1023.1 hPa | - | - | - | - |
| 1777409617 | 5° C | 52% | 1023 hPa | - | - | - | - |
| 1777408716 | 5° C | 55% | 1022.8 hPa | - | - | - | - |
| 1777407815 | 5° C | 55% | 1022.5 hPa | - | - | - | - |
| 1777406914 | 5.56° C | 54% | 1022.4 hPa | - | - | - | - |
| 1777406013 | 6.11° C | 53% | 1022.3 hPa | - | - | - | - |
| 1777405111 | 6.67° C | 51% | 1022.1 hPa | - | - | - | - |
| 1777404211 | 6.67° C | 50% | 1021.9 hPa | - | - | - | - |
| 1777403309 | 7.22° C | 48% | 1021.8 hPa | - | - | - | - |
| 1777402408 | 7.78° C | 44% | 1021.6 hPa | - | - | - | - |
| 1777401508 | 8.89° C | 41% | 1021.2 hPa | - | - | - | - |
| 1777400606 | 10° C | 39% | 1021 hPa | - | - | 1 W/m² | - |
| 1777399706 | 10° C | 38% | 1020.8 hPa | - | - | 4 W/m² | - |
| 1777398804 | 11.11° C | 35% | 1020.6 hPa | - | - | 12 W/m² | - |
| 1777397904 | 11.67° C | 34% | 1020.5 hPa | - | - | 21 W/m² | - |
| 1777397002 | 11.67° C | 34% | 1020.4 hPa | - | - | 31 W/m² | - |
* Rain since midnight (hover to see other rain measurements)
** Current wind speed in m/s (hover to see current wind gust speed)